sensor_id;sensor_type;location;lat;lon;timestamp;P1;durP1;ratioP1;P2;durP2;ratioP2
12623;SDS011;6377;42.836;23.998;2023-01-01T08:22:06;164.53;;;101.13;;
12623;SDS011;6377;42.836;23.998;2023-01-01T08:24:33;156.17;;;101.07;;
12623;SDS011;6377;42.836;23.998;2023-01-01T08:27:00;161.33;;;106.27;;
12623;SDS011;6377;42.836;23.998;2023-01-01T08:29:27;152.97;;;98.07;;
12623;SDS011;6377;42.836;23.998;2023-01-01T08:31:55;154.70;;;100.70;;
12623;SDS011;6377;42.836;23.998;2023-01-01T08:34:22;147.67;;;96.27;;
12623;SDS011;6377;42.836;23.998;2023-01-01T08:36:49;130.70;;;88.60;;
12623;SDS011;6377;42.836;23.998;2023-01-01T08:39:18;147.10;;;94.93;;
12623;SDS011;6377;42.836;23.998;2023-01-01T08:41:45;132.13;;;87.00;;
12623;SDS011;6377;42.836;23.998;2023-01-01T08:44:13;115.73;;;78.80;;
12623;SDS011;6377;42.836;23.998;2023-01-01T08:46:40;191.43;;;111.20;;
12623;SDS011;6377;42.836;23.998;2023-01-01T08:49:07;163.87;;;102.70;;
12623;SDS011;6377;42.836;23.998;2023-01-01T08:51:34;103.90;;;65.33;;
12623;SDS011;6377;42.836;23.998;2023-01-01T08:54:02;108.50;;;71.77;;
12623;SDS011;6377;42.836;23.998;2023-01-01T08:56:31;116.17;;;76.03;;
12623;SDS011;6377;42.836;23.998;2023-01-01T08:58:58;105.37;;;65.83;;
12623;SDS011;6377;42.836;23.998;2023-01-01T09:01:26;115.50;;;71.50;;
12623;SDS011;6377;42.836;23.998;2023-01-01T09:03:53;104.73;;;64.73;;
12623;SDS011;6377;42.836;23.998;2023-01-01T09:06:20;153.50;;;93.83;;
12623;SDS011;6377;42.836;23.998;2023-01-01T09:08:48;101.10;;;64.70;;
12623;SDS011;6377;42.836;23.998;2023-01-01T09:11:19;115.60;;;72.83;;
12623;SDS011;6377;42.836;23.998;2023-01-01T09:13:50;78.17;;;52.73;;
12623;SDS011;6377;42.836;23.998;2023-01-01T09:16:18;52.63;;;36.43;;
12623;SDS011;6377;42.836;23.998;2023-01-01T09:18:45;51.23;;;36.20;;
12623;SDS011;6377;42.836;23.998;2023-01-01T09:21:13;61.87;;;39.90;;
12623;SDS011;6377;42.836;23.998;2023-01-01T09:23:40;48.00;;;33.07;;
12623;SDS011;6377;42.836;23.998;2023-01-01T09:26:07;53.67;;;38.70;;
12623;SDS011;6377;42.836;23.998;2023-01-01T09:28:35;44.60;;;31.77;;
12623;SDS011;6377;42.836;23.998;2023-01-01T09:31:05;45.73;;;35.47;;
12623;SDS011;6377;42.836;23.998;2023-01-01T09:33:32;40.53;;;30.33;;
12623;SDS011;6377;42.836;23.998;2023-01-01T09:36:12;36.80;;;28.03;;
12623;SDS011;6377;42.836;23.998;2023-01-01T09:38:41;32.17;;;22.30;;
12623;SDS011;6377;42.836;23.998;2023-01-01T09:41:10;22.97;;;15.97;;
12623;SDS011;6377;42.836;23.998;2023-01-01T09:43:49;31.50;;;24.10;;
12623;SDS011;6377;42.836;23.998;2023-01-01T09:46:24;34.60;;;26.40;;
12623;SDS011;6377;42.836;23.998;2023-01-01T09:48:52;28.17;;;21.80;;
12623;SDS011;6377;42.836;23.998;2023-01-01T09:51:22;26.67;;;19.70;;
12623;SDS011;6377;42.836;23.998;2023-01-01T09:53:54;28.30;;;19.70;;
12623;SDS011;6377;42.836;23.998;2023-01-01T09:56:28;27.73;;;20.97;;
12623;SDS011;6377;42.836;23.998;2023-01-01T09:58:57;30.53;;;23.30;;
12623;SDS011;6377;42.836;23.998;2023-01-01T10:01:30;33.33;;;23.13;;
12623;SDS011;6377;42.836;23.998;2023-01-01T10:04:11;36.00;;;25.73;;
12623;SDS011;6377;42.836;23.998;2023-01-01T10:06:54;35.53;;;26.40;;
12623;SDS011;6377;42.836;23.998;2023-01-01T10:09:31;35.23;;;27.13;;
12623;SDS011;6377;42.836;23.998;2023-01-01T10:12:05;28.40;;;19.93;;
12623;SDS011;6377;42.836;23.998;2023-01-01T10:14:38;20.70;;;16.60;;
12623;SDS011;6377;42.836;23.998;2023-01-01T10:17:12;17.90;;;13.30;;
12623;SDS011;6377;42.836;23.998;2023-01-01T10:19:42;14.13;;;11.80;;
12623;SDS011;6377;42.836;23.998;2023-01-01T10:22:14;18.93;;;15.77;;
12623;SDS011;6377;42.836;23.998;2023-01-01T10:24:44;23.27;;;18.37;;
12623;SDS011;6377;42.836;23.998;2023-01-01T10:27:21;26.00;;;21.20;;
12623;SDS011;6377;42.836;23.998;2023-01-01T10:29:53;36.63;;;27.40;;
12623;SDS011;6377;42.836;23.998;2023-01-01T10:32:25;41.47;;;32.70;;
12623;SDS011;6377;42.836;23.998;2023-01-01T10:34:54;42.30;;;32.50;;
12623;SDS011;6377;42.836;23.998;2023-01-01T10:37:22;38.83;;;27.47;;
12623;SDS011;6377;42.836;23.998;2023-01-01T10:39:51;37.47;;;28.50;;
12623;SDS011;6377;42.836;23.998;2023-01-01T10:42:18;51.93;;;39.90;;
12623;SDS011;6377;42.836;23.998;2023-01-01T10:44:45;64.60;;;51.87;;
12623;SDS011;6377;42.836;23.998;2023-01-01T10:47:24;69.57;;;55.80;;
12623;SDS011;6377;42.836;23.998;2023-01-01T10:49:53;52.17;;;40.97;;
12623;SDS011;6377;42.836;23.998;2023-01-01T10:52:24;27.97;;;22.17;;
12623;SDS011;6377;42.836;23.998;2023-01-01T10:54:55;12.57;;;9.07;;
12623;SDS011;6377;42.836;23.998;2023-01-01T10:57:31;8.80;;;5.57;;
12623;SDS011;6377;42.836;23.998;2023-01-01T11:00:09;3.70;;;3.10;;
12623;SDS011;6377;42.836;23.998;2023-01-01T11:02:48;6.07;;;4.30;;
12623;SDS011;6377;42.836;23.998;2023-01-01T11:05:37;8.20;;;6.00;;
12623;SDS011;6377;42.836;23.998;2023-01-01T11:08:14;7.93;;;5.13;;
12623;SDS011;6377;42.836;23.998;2023-01-01T11:10:48;6.13;;;4.07;;
12623;SDS011;6377;42.836;23.998;2023-01-01T11:13:17;8.63;;;7.20;;
12623;SDS011;6377;42.836;23.998;2023-01-01T11:15:46;7.70;;;5.23;;
12623;SDS011;6377;42.836;23.998;2023-01-01T11:18:15;11.73;;;7.00;;
12623;SDS011;6377;42.836;23.998;2023-01-01T11:20:49;5.57;;;4.13;;
12623;SDS011;6377;42.836;23.998;2023-01-01T11:23:19;7.30;;;4.43;;
12623;SDS011;6377;42.836;23.998;2023-01-01T11:26:01;5.83;;;4.57;;
12623;SDS011;6377;42.836;23.998;2023-01-01T11:28:31;23.33;;;12.57;;
12623;SDS011;6377;42.836;23.998;2023-01-01T11:31:01;20.43;;;11.13;;
12623;SDS011;6377;42.836;23.998;2023-01-01T11:33:32;10.67;;;7.07;;
12623;SDS011;6377;42.836;23.998;2023-01-01T11:36:02;6.23;;;4.67;;
12623;SDS011;6377;42.836;23.998;2023-01-01T11:38:30;8.90;;;5.33;;
12623;SDS011;6377;42.836;23.998;2023-01-01T11:41:00;5.03;;;2.30;;
12623;SDS011;6377;42.836;23.998;2023-01-01T11:43:31;8.63;;;5.83;;
12623;SDS011;6377;42.836;23.998;2023-01-01T11:46:05;7.97;;;6.40;;
12623;SDS011;6377;42.836;23.998;2023-01-01T11:48:38;6.50;;;4.50;;
12623;SDS011;6377;42.836;23.998;2023-01-01T11:51:08;5.97;;;3.90;;
12623;SDS011;6377;42.836;23.998;2023-01-01T11:53:37;8.23;;;5.83;;
12623;SDS011;6377;42.836;23.998;2023-01-01T11:56:07;4.40;;;2.87;;
12623;SDS011;6377;42.836;23.998;2023-01-01T11:58:40;5.33;;;3.13;;
12623;SDS011;6377;42.836;23.998;2023-01-01T12:01:16;5.43;;;3.70;;
12623;SDS011;6377;42.836;23.998;2023-01-01T12:03:52;4.80;;;3.50;;
12623;SDS011;6377;42.836;23.998;2023-01-01T12:06:25;5.67;;;4.13;;
12623;SDS011;6377;42.836;23.998;2023-01-01T12:09:00;2.40;;;1.60;;
12623;SDS011;6377;42.836;23.998;2023-01-01T12:11:33;3.90;;;2.13;;
12623;SDS011;6377;42.836;23.998;2023-01-01T12:14:05;4.13;;;3.13;;
12623;SDS011;6377;42.836;23.998;2023-01-01T12:16:50;7.33;;;4.53;;
12623;SDS011;6377;42.836;23.998;2023-01-01T12:19:23;10.03;;;5.37;;
12623;SDS011;6377;42.836;23.998;2023-01-01T12:21:56;10.97;;;6.73;;
12623;SDS011;6377;42.836;23.998;2023-01-01T12:24:25;18.83;;;11.13;;
12623;SDS011;6377;42.836;23.998;2023-01-01T12:27:04;22.47;;;13.90;;
12623;SDS011;6377;42.836;23.998;2023-01-01T12:29:45;58.93;;;35.93;;
12623;SDS011;6377;42.836;23.998;2023-01-01T12:32:21;16.33;;;11.70;;
12623;SDS011;6377;42.836;23.998;2023-01-01T12:35:01;6.63;;;4.77;;
12623;SDS011;6377;42.836;23.998;2023-01-01T12:37:38;12.97;;;10.37;;
12623;SDS011;6377;42.836;23.998;2023-01-01T12:40:28;14.97;;;9.93;;
12623;SDS011;6377;42.836;23.998;2023-01-01T12:43:01;21.87;;;15.13;;
12623;SDS011;6377;42.836;23.998;2023-01-01T12:45:37;15.90;;;11.13;;
12623;SDS011;6377;42.836;23.998;2023-01-01T12:48:19;8.83;;;7.00;;
12623;SDS011;6377;42.836;23.998;2023-01-01T12:50:58;9.77;;;7.53;;
12623;SDS011;6377;42.836;23.998;2023-01-01T12:53:33;7.40;;;6.10;;
12623;SDS011;6377;42.836;23.998;2023-01-01T12:56:11;11.30;;;7.90;;
12623;SDS011;6377;42.836;23.998;2023-01-01T12:58:43;7.80;;;5.60;;
12623;SDS011;6377;42.836;23.998;2023-01-01T13:01:17;6.37;;;4.50;;
12623;SDS011;6377;42.836;23.998;2023-01-01T13:03:48;7.23;;;5.43;;
12623;SDS011;6377;42.836;23.998;2023-01-01T13:06:21;6.43;;;4.60;;
12623;SDS011;6377;42.836;23.998;2023-01-01T13:08:53;8.03;;;4.77;;
12623;SDS011;6377;42.836;23.998;2023-01-01T13:11:25;6.20;;;5.03;;
12623;SDS011;6377;42.836;23.998;2023-01-01T13:13:54;8.83;;;6.53;;
12623;SDS011;6377;42.836;23.998;2023-01-01T13:16:34;7.97;;;6.00;;
12623;SDS011;6377;42.836;23.998;2023-01-01T13:19:03;9.23;;;7.00;;
12623;SDS011;6377;42.836;23.998;2023-01-01T13:21:33;18.93;;;15.50;;
12623;SDS011;6377;42.836;23.998;2023-01-01T13:24:03;11.97;;;10.63;;
12623;SDS011;6377;42.836;23.998;2023-01-01T13:26:44;9.80;;;8.03;;
12623;SDS011;6377;42.836;23.998;2023-01-01T13:29:31;8.93;;;7.20;;
12623;SDS011;6377;42.836;23.998;2023-01-01T13:32:06;9.33;;;7.20;;
12623;SDS011;6377;42.836;23.998;2023-01-01T13:34:41;12.80;;;8.97;;
12623;SDS011;6377;42.836;23.998;2023-01-01T13:40:29;21.93;;;14.53;;
12623;SDS011;6377;42.836;23.998;2023-01-01T13:43:18;17.63;;;9.63;;
12623;SDS011;6377;42.836;23.998;2023-01-01T13:45:57;18.57;;;10.13;;
12623;SDS011;6377;42.836;23.998;2023-01-01T13:51:33;20.77;;;12.93;;
12623;SDS011;6377;42.836;23.998;2023-01-01T13:57:29;46.30;;;33.87;;
12623;SDS011;6377;42.836;23.998;2023-01-01T14:00:15;55.47;;;39.33;;
12623;SDS011;6377;42.836;23.998;2023-01-01T14:02:47;79.50;;;51.90;;
12623;SDS011;6377;42.836;23.998;2023-01-01T14:05:24;79.17;;;54.63;;
12623;SDS011;6377;42.836;23.998;2023-01-01T14:07:55;85.27;;;55.40;;
12623;SDS011;6377;42.836;23.998;2023-01-01T14:10:24;55.07;;;38.00;;
12623;SDS011;6377;42.836;23.998;2023-01-01T14:12:55;73.60;;;49.40;;
12623;SDS011;6377;42.836;23.998;2023-01-01T14:15:40;45.23;;;29.67;;
12623;SDS011;6377;42.836;23.998;2023-01-01T14:18:17;35.17;;;24.50;;
12623;SDS011;6377;42.836;23.998;2023-01-01T14:20:45;48.23;;;33.37;;
12623;SDS011;6377;42.836;23.998;2023-01-01T14:23:15;42.57;;;27.27;;
12623;SDS011;6377;42.836;23.998;2023-01-01T14:25:45;42.20;;;26.30;;
12623;SDS011;6377;42.836;23.998;2023-01-01T14:28:15;24.37;;;16.43;;
12623;SDS011;6377;42.836;23.998;2023-01-01T14:30:46;37.40;;;29.00;;
12623;SDS011;6377;42.836;23.998;2023-01-01T14:33:20;141.37;;;55.10;;
12623;SDS011;6377;42.836;23.998;2023-01-01T14:35:51;517.40;;;189.17;;
12623;SDS011;6377;42.836;23.998;2023-01-01T14:38:23;90.37;;;50.10;;
12623;SDS011;6377;42.836;23.998;2023-01-01T14:41:01;279.30;;;128.83;;
12623;SDS011;6377;42.836;23.998;2023-01-01T14:43:36;114.80;;;65.97;;
12623;SDS011;6377;42.836;23.998;2023-01-01T14:46:04;214.87;;;111.80;;
12623;SDS011;6377;42.836;23.998;2023-01-01T14:48:32;165.83;;;99.63;;
12623;SDS011;6377;42.836;23.998;2023-01-01T14:51:00;88.20;;;58.13;;
12623;SDS011;6377;42.836;23.998;2023-01-01T14:53:29;217.00;;;114.20;;
12623;SDS011;6377;42.836;23.998;2023-01-01T14:55:59;229.13;;;128.03;;
12623;SDS011;6377;42.836;23.998;2023-01-01T14:58:31;165.60;;;104.37;;
12623;SDS011;6377;42.836;23.998;2023-01-01T15:03:53;134.90;;;90.33;;
12623;SDS011;6377;42.836;23.998;2023-01-01T15:06:22;122.70;;;77.83;;
12623;SDS011;6377;42.836;23.998;2023-01-01T15:08:50;76.37;;;49.30;;
12623;SDS011;6377;42.836;23.998;2023-01-01T15:11:17;158.90;;;100.30;;
12623;SDS011;6377;42.836;23.998;2023-01-01T15:13:52;111.30;;;73.37;;
12623;SDS011;6377;42.836;23.998;2023-01-01T15:16:25;94.17;;;67.10;;
12623;SDS011;6377;42.836;23.998;2023-01-01T15:18:53;72.43;;;50.80;;
12623;SDS011;6377;42.836;23.998;2023-01-01T15:24:09;51.00;;;37.47;;
12623;SDS011;6377;42.836;23.998;2023-01-01T15:26:40;49.00;;;35.83;;
12623;SDS011;6377;42.836;23.998;2023-01-01T15:29:09;59.77;;;39.97;;
12623;SDS011;6377;42.836;23.998;2023-01-01T15:31:43;67.87;;;46.53;;
12623;SDS011;6377;42.836;23.998;2023-01-01T15:34:19;74.13;;;48.07;;
12623;SDS011;6377;42.836;23.998;2023-01-01T15:36:50;59.60;;;38.93;;
12623;SDS011;6377;42.836;23.998;2023-01-01T15:39:18;68.40;;;47.23;;
12623;SDS011;6377;42.836;23.998;2023-01-01T15:41:46;85.13;;;57.90;;
12623;SDS011;6377;42.836;23.998;2023-01-01T15:44:19;44.93;;;31.00;;
12623;SDS011;6377;42.836;23.998;2023-01-01T15:46:52;63.87;;;43.20;;
12623;SDS011;6377;42.836;23.998;2023-01-01T15:49:30;56.57;;;37.13;;
12623;SDS011;6377;42.836;23.998;2023-01-01T15:51:58;41.03;;;27.27;;
12623;SDS011;6377;42.836;23.998;2023-01-01T15:54:28;37.73;;;26.03;;
12623;SDS011;6377;42.836;23.998;2023-01-01T15:56:57;41.40;;;27.53;;
12623;SDS011;6377;42.836;23.998;2023-01-01T15:59:25;39.33;;;26.80;;
12623;SDS011;6377;42.836;23.998;2023-01-01T16:02:03;50.03;;;33.53;;
12623;SDS011;6377;42.836;23.998;2023-01-01T16:04:37;104.83;;;56.50;;
12623;SDS011;6377;42.836;23.998;2023-01-01T16:07:05;120.20;;;58.73;;
12623;SDS011;6377;42.836;23.998;2023-01-01T16:09:41;80.80;;;46.63;;
12623;SDS011;6377;42.836;23.998;2023-01-01T16:12:09;78.57;;;45.37;;
12623;SDS011;6377;42.836;23.998;2023-01-01T16:14:36;70.00;;;41.33;;
12623;SDS011;6377;42.836;23.998;2023-01-01T16:17:05;179.77;;;106.57;;
12623;SDS011;6377;42.836;23.998;2023-01-01T16:19:38;137.07;;;86.13;;
12623;SDS011;6377;42.836;23.998;2023-01-01T16:22:05;31.37;;;21.30;;
12623;SDS011;6377;42.836;23.998;2023-01-01T16:24:32;28.70;;;17.77;;
12623;SDS011;6377;42.836;23.998;2023-01-01T16:27:00;40.77;;;27.53;;
12623;SDS011;6377;42.836;23.998;2023-01-01T16:29:28;86.30;;;51.03;;
12623;SDS011;6377;42.836;23.998;2023-01-01T16:31:55;97.47;;;55.90;;
12623;SDS011;6377;42.836;23.998;2023-01-01T16:34:24;40.80;;;28.13;;
12623;SDS011;6377;42.836;23.998;2023-01-01T16:36:51;57.20;;;34.47;;
12623;SDS011;6377;42.836;23.998;2023-01-01T16:39:18;44.17;;;26.83;;
12623;SDS011;6377;42.836;23.998;2023-01-01T16:41:46;46.30;;;28.90;;
12623;SDS011;6377;42.836;23.998;2023-01-01T16:44:13;47.17;;;29.43;;
12623;SDS011;6377;42.836;23.998;2023-01-01T16:46:41;59.30;;;39.40;;
12623;SDS011;6377;42.836;23.998;2023-01-01T16:49:08;117.83;;;73.57;;
12623;SDS011;6377;42.836;23.998;2023-01-01T16:51:37;64.17;;;42.40;;
12623;SDS011;6377;42.836;23.998;2023-01-01T16:54:04;77.90;;;49.13;;
12623;SDS011;6377;42.836;23.998;2023-01-01T16:56:32;90.13;;;56.77;;
12623;SDS011;6377;42.836;23.998;2023-01-01T16:58:59;132.33;;;79.90;;
12623;SDS011;6377;42.836;23.998;2023-01-01T17:01:26;119.83;;;78.17;;
12623;SDS011;6377;42.836;23.998;2023-01-01T17:03:53;56.67;;;34.20;;
12623;SDS011;6377;42.836;23.998;2023-01-01T17:06:20;166.47;;;92.13;;
12623;SDS011;6377;42.836;23.998;2023-01-01T17:08:49;81.03;;;54.17;;
12623;SDS011;6377;42.836;23.998;2023-01-01T17:11:17;95.17;;;61.93;;
12623;SDS011;6377;42.836;23.998;2023-01-01T17:13:46;80.00;;;50.97;;
12623;SDS011;6377;42.836;23.998;2023-01-01T17:16:13;87.97;;;57.10;;
12623;SDS011;6377;42.836;23.998;2023-01-01T17:18:42;85.17;;;54.70;;
12623;SDS011;6377;42.836;23.998;2023-01-01T17:21:09;92.20;;;60.17;;
12623;SDS011;6377;42.836;23.998;2023-01-01T17:23:38;91.47;;;59.50;;
12623;SDS011;6377;42.836;23.998;2023-01-01T17:26:09;57.07;;;41.57;;
12623;SDS011;6377;42.836;23.998;2023-01-01T17:28:37;68.63;;;46.20;;
12623;SDS011;6377;42.836;23.998;2023-01-01T17:31:07;109.23;;;66.77;;
12623;SDS011;6377;42.836;23.998;2023-01-01T17:33:36;131.83;;;74.83;;
12623;SDS011;6377;42.836;23.998;2023-01-01T17:36:04;86.70;;;58.80;;
12623;SDS011;6377;42.836;23.998;2023-01-01T17:38:32;68.47;;;47.97;;
12623;SDS011;6377;42.836;23.998;2023-01-01T17:41:00;69.33;;;43.00;;
12623;SDS011;6377;42.836;23.998;2023-01-01T17:43:31;65.00;;;42.70;;
12623;SDS011;6377;42.836;23.998;2023-01-01T17:46:03;67.20;;;46.43;;
12623;SDS011;6377;42.836;23.998;2023-01-01T17:48:30;63.50;;;42.80;;
12623;SDS011;6377;42.836;23.998;2023-01-01T17:50:58;56.93;;;37.03;;
12623;SDS011;6377;42.836;23.998;2023-01-01T17:53:25;66.60;;;40.27;;
12623;SDS011;6377;42.836;23.998;2023-01-01T17:55:53;85.70;;;52.00;;
12623;SDS011;6377;42.836;23.998;2023-01-01T17:58:20;92.33;;;54.23;;
12623;SDS011;6377;42.836;23.998;2023-01-01T18:00:49;138.83;;;81.27;;
12623;SDS011;6377;42.836;23.998;2023-01-01T18:03:17;142.93;;;84.53;;
12623;SDS011;6377;42.836;23.998;2023-01-01T18:05:45;149.90;;;90.57;;
12623;SDS011;6377;42.836;23.998;2023-01-01T18:08:12;196.60;;;107.67;;
12623;SDS011;6377;42.836;23.998;2023-01-01T18:10:40;151.67;;;90.57;;
12623;SDS011;6377;42.836;23.998;2023-01-01T18:13:07;130.43;;;74.30;;
12623;SDS011;6377;42.836;23.998;2023-01-01T18:15:34;92.57;;;56.63;;
12623;SDS011;6377;42.836;23.998;2023-01-01T18:18:04;75.90;;;47.57;;
12623;SDS011;6377;42.836;23.998;2023-01-01T18:20:31;86.87;;;54.77;;
12623;SDS011;6377;42.836;23.998;2023-01-01T18:22:59;92.97;;;53.87;;
12623;SDS011;6377;42.836;23.998;2023-01-01T18:25:29;89.37;;;51.73;;
12623;SDS011;6377;42.836;23.998;2023-01-01T18:27:57;74.27;;;48.33;;
12623;SDS011;6377;42.836;23.998;2023-01-01T18:30:25;95.80;;;55.67;;
12623;SDS011;6377;42.836;23.998;2023-01-01T18:32:52;126.50;;;66.20;;
12623;SDS011;6377;42.836;23.998;2023-01-01T18:35:21;166.87;;;92.13;;
12623;SDS011;6377;42.836;23.998;2023-01-01T18:37:49;152.17;;;87.10;;
12623;SDS011;6377;42.836;23.998;2023-01-01T18:40:16;155.33;;;90.63;;
12623;SDS011;6377;42.836;23.998;2023-01-01T18:42:44;170.83;;;92.33;;
12623;SDS011;6377;42.836;23.998;2023-01-01T18:45:18;155.47;;;89.77;;
12623;SDS011;6377;42.836;23.998;2023-01-01T18:47:48;165.63;;;96.17;;
12623;SDS011;6377;42.836;23.998;2023-01-01T18:50:16;196.93;;;101.20;;
12623;SDS011;6377;42.836;23.998;2023-01-01T18:52:50;149.37;;;80.03;;
12623;SDS011;6377;42.836;23.998;2023-01-01T18:55:18;107.60;;;64.07;;
12623;SDS011;6377;42.836;23.998;2023-01-01T18:57:53;117.43;;;70.70;;
12623;SDS011;6377;42.836;23.998;2023-01-01T19:00:25;104.37;;;67.07;;
12623;SDS011;6377;42.836;23.998;2023-01-01T19:05:51;103.13;;;64.20;;
12623;SDS011;6377;42.836;23.998;2023-01-01T19:08:22;101.90;;;67.37;;
12623;SDS011;6377;42.836;23.998;2023-01-01T19:10:52;95.93;;;59.43;;
12623;SDS011;6377;42.836;23.998;2023-01-01T19:13:27;94.97;;;60.97;;
12623;SDS011;6377;42.836;23.998;2023-01-01T19:15:59;88.43;;;57.33;;
12623;SDS011;6377;42.836;23.998;2023-01-01T19:21:20;206.93;;;116.57;;
12623;SDS011;6377;42.836;23.998;2023-01-01T19:33:05;98.37;;;58.77;;
12623;SDS011;6377;42.836;23.998;2023-01-01T19:35:36;106.23;;;60.00;;
12623;SDS011;6377;42.836;23.998;2023-01-01T19:38:14;111.90;;;60.67;;
12623;SDS011;6377;42.836;23.998;2023-01-01T19:41:05;75.57;;;46.83;;
